sensor_id;sensor_type;location;lat;lon;timestamp;P1;durP1;ratioP1;P2;durP2;ratioP2
27893;SDS011;15240;50.812;4.792;2023-07-13T00:02:10;7.67;;;2.00;;
27893;SDS011;15240;50.812;4.792;2023-07-13T00:04:36;8.13;;;2.07;;
27893;SDS011;15240;50.812;4.792;2023-07-13T00:07:03;8.97;;;2.33;;
27893;SDS011;15240;50.812;4.792;2023-07-13T00:09:29;9.73;;;2.13;;
27893;SDS011;15240;50.812;4.792;2023-07-13T00:11:56;5.83;;;2.00;;
27893;SDS011;15240;50.812;4.792;2023-07-13T00:14:23;6.83;;;2.37;;
27893;SDS011;15240;50.812;4.792;2023-07-13T00:16:49;6.27;;;2.10;;
27893;SDS011;15240;50.812;4.792;2023-07-13T00:19:15;8.00;;;2.33;;
27893;SDS011;15240;50.812;4.792;2023-07-13T00:21:41;10.07;;;2.43;;
27893;SDS011;15240;50.812;4.792;2023-07-13T00:24:08;7.03;;;2.50;;
27893;SDS011;15240;50.812;4.792;2023-07-13T00:26:38;10.00;;;2.60;;
27893;SDS011;15240;50.812;4.792;2023-07-13T00:29:04;5.57;;;2.20;;
27893;SDS011;15240;50.812;4.792;2023-07-13T00:31:33;7.43;;;2.23;;
27893;SDS011;15240;50.812;4.792;2023-07-13T00:33:59;6.90;;;2.33;;
27893;SDS011;15240;50.812;4.792;2023-07-13T00:36:25;7.67;;;2.43;;
27893;SDS011;15240;50.812;4.792;2023-07-13T00:38:52;6.57;;;2.07;;
27893;SDS011;15240;50.812;4.792;2023-07-13T00:41:19;4.40;;;2.10;;
27893;SDS011;15240;50.812;4.792;2023-07-13T00:43:45;7.03;;;2.10;;
27893;SDS011;15240;50.812;4.792;2023-07-13T00:46:25;8.13;;;2.33;;
27893;SDS011;15240;50.812;4.792;2023-07-13T00:48:51;6.97;;;2.30;;
27893;SDS011;15240;50.812;4.792;2023-07-13T00:51:20;6.67;;;2.47;;
27893;SDS011;15240;50.812;4.792;2023-07-13T00:53:48;9.50;;;2.53;;
27893;SDS011;15240;50.812;4.792;2023-07-13T00:56:14;8.00;;;2.10;;
27893;SDS011;15240;50.812;4.792;2023-07-13T00:58:40;10.80;;;2.60;;
27893;SDS011;15240;50.812;4.792;2023-07-13T01:01:06;5.63;;;2.40;;
27893;SDS011;15240;50.812;4.792;2023-07-13T01:03:32;7.27;;;2.60;;
27893;SDS011;15240;50.812;4.792;2023-07-13T01:06:00;6.60;;;2.40;;
27893;SDS011;15240;50.812;4.792;2023-07-13T01:08:27;10.07;;;2.57;;
27893;SDS011;15240;50.812;4.792;2023-07-13T01:10:54;7.60;;;2.10;;
27893;SDS011;15240;50.812;4.792;2023-07-13T01:13:20;9.30;;;2.63;;
27893;SDS011;15240;50.812;4.792;2023-07-13T01:15:47;11.67;;;2.77;;
27893;SDS011;15240;50.812;4.792;2023-07-13T01:18:18;9.63;;;2.73;;
27893;SDS011;15240;50.812;4.792;2023-07-13T01:20:49;12.07;;;2.77;;
27893;SDS011;15240;50.812;4.792;2023-07-13T01:23:16;8.40;;;2.53;;
27893;SDS011;15240;50.812;4.792;2023-07-13T01:25:42;9.47;;;2.80;;
27893;SDS011;15240;50.812;4.792;2023-07-13T01:28:08;10.27;;;2.90;;
27893;SDS011;15240;50.812;4.792;2023-07-13T01:30:35;7.63;;;2.43;;
27893;SDS011;15240;50.812;4.792;2023-07-13T01:33:05;8.93;;;2.90;;
27893;SDS011;15240;50.812;4.792;2023-07-13T01:35:32;9.77;;;2.60;;
27893;SDS011;15240;50.812;4.792;2023-07-13T01:37:58;8.77;;;2.20;;
27893;SDS011;15240;50.812;4.792;2023-07-13T01:40:26;12.10;;;3.07;;
27893;SDS011;15240;50.812;4.792;2023-07-13T01:42:52;8.50;;;2.93;;
27893;SDS011;15240;50.812;4.792;2023-07-13T01:45:18;10.07;;;3.10;;
27893;SDS011;15240;50.812;4.792;2023-07-13T01:47:45;6.70;;;2.67;;
27893;SDS011;15240;50.812;4.792;2023-07-13T01:50:11;7.73;;;2.80;;
27893;SDS011;15240;50.812;4.792;2023-07-13T01:52:37;11.17;;;2.80;;
27893;SDS011;15240;50.812;4.792;2023-07-13T01:55:03;7.87;;;2.43;;
27893;SDS011;15240;50.812;4.792;2023-07-13T01:57:29;10.00;;;2.80;;
27893;SDS011;15240;50.812;4.792;2023-07-13T01:59:56;10.30;;;2.73;;
27893;SDS011;15240;50.812;4.792;2023-07-13T02:02:22;10.17;;;2.73;;
27893;SDS011;15240;50.812;4.792;2023-07-13T02:04:48;12.43;;;2.70;;
27893;SDS011;15240;50.812;4.792;2023-07-13T02:07:14;7.37;;;2.97;;
27893;SDS011;15240;50.812;4.792;2023-07-13T02:09:40;10.47;;;3.03;;
27893;SDS011;15240;50.812;4.792;2023-07-13T02:12:07;11.23;;;2.87;;
27893;SDS011;15240;50.812;4.792;2023-07-13T02:14:33;11.37;;;3.20;;
27893;SDS011;15240;50.812;4.792;2023-07-13T02:17:00;9.03;;;3.13;;
27893;SDS011;15240;50.812;4.792;2023-07-13T02:19:26;9.53;;;3.17;;
27893;SDS011;15240;50.812;4.792;2023-07-13T02:21:52;11.20;;;3.10;;
27893;SDS011;15240;50.812;4.792;2023-07-13T02:24:18;11.00;;;3.47;;
27893;SDS011;15240;50.812;4.792;2023-07-13T02:26:46;13.90;;;3.37;;
27893;SDS011;15240;50.812;4.792;2023-07-13T02:29:12;12.43;;;3.40;;
27893;SDS011;15240;50.812;4.792;2023-07-13T02:31:38;9.67;;;3.00;;
27893;SDS011;15240;50.812;4.792;2023-07-13T02:34:04;8.57;;;3.20;;
27893;SDS011;15240;50.812;4.792;2023-07-13T02:36:30;12.70;;;3.33;;
27893;SDS011;15240;50.812;4.792;2023-07-13T02:39:00;7.50;;;3.10;;
27893;SDS011;15240;50.812;4.792;2023-07-13T02:41:27;11.30;;;3.23;;
27893;SDS011;15240;50.812;4.792;2023-07-13T02:43:54;11.17;;;3.33;;
27893;SDS011;15240;50.812;4.792;2023-07-13T02:46:27;11.57;;;3.30;;
27893;SDS011;15240;50.812;4.792;2023-07-13T02:48:54;10.40;;;3.30;;
27893;SDS011;15240;50.812;4.792;2023-07-13T02:51:20;10.73;;;3.33;;
27893;SDS011;15240;50.812;4.792;2023-07-13T02:53:46;10.63;;;3.50;;
27893;SDS011;15240;50.812;4.792;2023-07-13T02:56:12;11.90;;;3.40;;
27893;SDS011;15240;50.812;4.792;2023-07-13T02:58:38;12.43;;;3.40;;
27893;SDS011;15240;50.812;4.792;2023-07-13T03:01:10;9.80;;;3.53;;
27893;SDS011;15240;50.812;4.792;2023-07-13T03:03:36;10.67;;;3.40;;
27893;SDS011;15240;50.812;4.792;2023-07-13T03:06:03;13.53;;;3.80;;
27893;SDS011;15240;50.812;4.792;2023-07-13T03:08:31;15.33;;;3.43;;
27893;SDS011;15240;50.812;4.792;2023-07-13T03:11:04;14.27;;;3.90;;
27893;SDS011;15240;50.812;4.792;2023-07-13T03:13:30;14.10;;;3.60;;
27893;SDS011;15240;50.812;4.792;2023-07-13T03:15:57;12.20;;;3.67;;
27893;SDS011;15240;50.812;4.792;2023-07-13T03:18:23;11.20;;;3.80;;
27893;SDS011;15240;50.812;4.792;2023-07-13T03:20:50;10.03;;;3.30;;
27893;SDS011;15240;50.812;4.792;2023-07-13T03:23:17;10.53;;;3.40;;
27893;SDS011;15240;50.812;4.792;2023-07-13T03:25:43;9.63;;;3.30;;
27893;SDS011;15240;50.812;4.792;2023-07-13T03:28:10;12.43;;;3.70;;
27893;SDS011;15240;50.812;4.792;2023-07-13T03:30:36;11.20;;;3.53;;
27893;SDS011;15240;50.812;4.792;2023-07-13T03:33:02;11.13;;;3.30;;
27893;SDS011;15240;50.812;4.792;2023-07-13T03:35:28;9.50;;;3.20;;
27893;SDS011;15240;50.812;4.792;2023-07-13T03:37:54;12.30;;;3.30;;
27893;SDS011;15240;50.812;4.792;2023-07-13T03:40:20;11.07;;;3.20;;
27893;SDS011;15240;50.812;4.792;2023-07-13T03:42:47;15.43;;;3.67;;
27893;SDS011;15240;50.812;4.792;2023-07-13T03:45:13;10.87;;;3.90;;
27893;SDS011;15240;50.812;4.792;2023-07-13T03:47:39;12.47;;;3.60;;
27893;SDS011;15240;50.812;4.792;2023-07-13T03:50:05;11.57;;;3.67;;
27893;SDS011;15240;50.812;4.792;2023-07-13T03:52:31;13.30;;;3.57;;
27893;SDS011;15240;50.812;4.792;2023-07-13T03:54:58;14.40;;;3.60;;
27893;SDS011;15240;50.812;4.792;2023-07-13T03:57:24;7.70;;;3.23;;
27893;SDS011;15240;50.812;4.792;2023-07-13T03:59:50;8.93;;;3.30;;
27893;SDS011;15240;50.812;4.792;2023-07-13T04:02:16;13.17;;;3.70;;
27893;SDS011;15240;50.812;4.792;2023-07-13T04:04:43;9.93;;;3.30;;
27893;SDS011;15240;50.812;4.792;2023-07-13T04:07:09;9.57;;;3.30;;
27893;SDS011;15240;50.812;4.792;2023-07-13T04:09:35;13.07;;;3.67;;
27893;SDS011;15240;50.812;4.792;2023-07-13T04:12:01;13.43;;;3.50;;
27893;SDS011;15240;50.812;4.792;2023-07-13T04:14:28;15.60;;;4.27;;
27893;SDS011;15240;50.812;4.792;2023-07-13T04:16:54;9.30;;;3.60;;
27893;SDS011;15240;50.812;4.792;2023-07-13T04:19:20;12.90;;;3.53;;
27893;SDS011;15240;50.812;4.792;2023-07-13T04:21:47;12.60;;;3.53;;
27893;SDS011;15240;50.812;4.792;2023-07-13T04:24:13;11.50;;;3.33;;
27893;SDS011;15240;50.812;4.792;2023-07-13T04:26:39;9.07;;;3.00;;
27893;SDS011;15240;50.812;4.792;2023-07-13T04:29:06;11.60;;;3.60;;
27893;SDS011;15240;50.812;4.792;2023-07-13T04:31:32;12.03;;;3.67;;
27893;SDS011;15240;50.812;4.792;2023-07-13T04:33:59;12.43;;;3.87;;
27893;SDS011;15240;50.812;4.792;2023-07-13T04:36:25;10.07;;;3.33;;
27893;SDS011;15240;50.812;4.792;2023-07-13T04:38:54;15.10;;;3.77;;
27893;SDS011;15240;50.812;4.792;2023-07-13T04:41:20;9.67;;;3.20;;
27893;SDS011;15240;50.812;4.792;2023-07-13T04:43:47;8.60;;;3.47;;
27893;SDS011;15240;50.812;4.792;2023-07-13T04:46:14;12.67;;;3.67;;
27893;SDS011;15240;50.812;4.792;2023-07-13T04:48:42;12.37;;;3.80;;
27893;SDS011;15240;50.812;4.792;2023-07-13T04:51:08;11.73;;;3.33;;
27893;SDS011;15240;50.812;4.792;2023-07-13T04:53:35;11.17;;;3.60;;
27893;SDS011;15240;50.812;4.792;2023-07-13T04:56:01;13.40;;;3.67;;
27893;SDS011;15240;50.812;4.792;2023-07-13T04:58:27;9.07;;;3.33;;
27893;SDS011;15240;50.812;4.792;2023-07-13T05:00:59;10.63;;;3.77;;
27893;SDS011;15240;50.812;4.792;2023-07-13T05:03:25;10.90;;;3.10;;
27893;SDS011;15240;50.812;4.792;2023-07-13T05:05:55;15.03;;;3.20;;
27893;SDS011;15240;50.812;4.792;2023-07-13T05:08:21;9.60;;;3.27;;
27893;SDS011;15240;50.812;4.792;2023-07-13T05:10:47;9.50;;;3.30;;
27893;SDS011;15240;50.812;4.792;2023-07-13T05:13:13;16.03;;;3.73;;
27893;SDS011;15240;50.812;4.792;2023-07-13T05:15:39;14.77;;;3.73;;
27893;SDS011;15240;50.812;4.792;2023-07-13T05:18:05;12.77;;;3.23;;
27893;SDS011;15240;50.812;4.792;2023-07-13T05:20:32;12.73;;;3.20;;
27893;SDS011;15240;50.812;4.792;2023-07-13T05:22:58;13.30;;;3.60;;
27893;SDS011;15240;50.812;4.792;2023-07-13T05:25:24;15.73;;;3.93;;
27893;SDS011;15240;50.812;4.792;2023-07-13T05:27:50;14.07;;;3.50;;
27893;SDS011;15240;50.812;4.792;2023-07-13T05:30:16;11.23;;;3.07;;
27893;SDS011;15240;50.812;4.792;2023-07-13T05:32:42;14.97;;;3.93;;
27893;SDS011;15240;50.812;4.792;2023-07-13T05:35:08;14.60;;;3.80;;
27893;SDS011;15240;50.812;4.792;2023-07-13T05:37:35;10.73;;;3.20;;
27893;SDS011;15240;50.812;4.792;2023-07-13T05:40:01;13.67;;;3.33;;
27893;SDS011;15240;50.812;4.792;2023-07-13T05:42:27;12.20;;;3.37;;
27893;SDS011;15240;50.812;4.792;2023-07-13T05:44:53;10.37;;;3.40;;
27893;SDS011;15240;50.812;4.792;2023-07-13T05:47:19;13.03;;;3.37;;
27893;SDS011;15240;50.812;4.792;2023-07-13T05:49:46;11.30;;;3.00;;
27893;SDS011;15240;50.812;4.792;2023-07-13T05:52:12;10.50;;;3.47;;
27893;SDS011;15240;50.812;4.792;2023-07-13T05:54:38;10.97;;;3.07;;
27893;SDS011;15240;50.812;4.792;2023-07-13T05:57:04;10.43;;;3.70;;
27893;SDS011;15240;50.812;4.792;2023-07-13T05:59:30;14.40;;;3.20;;
27893;SDS011;15240;50.812;4.792;2023-07-13T06:01:57;14.37;;;3.60;;
27893;SDS011;15240;50.812;4.792;2023-07-13T06:04:23;11.30;;;3.30;;
27893;SDS011;15240;50.812;4.792;2023-07-13T06:06:49;12.40;;;3.30;;
27893;SDS011;15240;50.812;4.792;2023-07-13T06:09:15;9.90;;;2.77;;
27893;SDS011;15240;50.812;4.792;2023-07-13T06:11:41;10.53;;;3.20;;
27893;SDS011;15240;50.812;4.792;2023-07-13T06:14:07;9.17;;;2.90;;
27893;SDS011;15240;50.812;4.792;2023-07-13T06:16:34;10.67;;;3.00;;
27893;SDS011;15240;50.812;4.792;2023-07-13T06:19:00;13.33;;;2.90;;
27893;SDS011;15240;50.812;4.792;2023-07-13T06:21:26;13.17;;;3.57;;
27893;SDS011;15240;50.812;4.792;2023-07-13T06:23:52;11.53;;;3.27;;
27893;SDS011;15240;50.812;4.792;2023-07-13T06:26:19;11.20;;;3.23;;
27893;SDS011;15240;50.812;4.792;2023-07-13T06:28:46;12.20;;;3.40;;
27893;SDS011;15240;50.812;4.792;2023-07-13T06:31:13;12.73;;;3.40;;
27893;SDS011;15240;50.812;4.792;2023-07-13T06:33:39;15.37;;;3.83;;
27893;SDS011;15240;50.812;4.792;2023-07-13T06:36:06;12.30;;;3.43;;
27893;SDS011;15240;50.812;4.792;2023-07-13T06:38:33;13.43;;;3.47;;
27893;SDS011;15240;50.812;4.792;2023-07-13T06:41:00;15.33;;;3.53;;
27893;SDS011;15240;50.812;4.792;2023-07-13T06:43:26;13.70;;;3.67;;
27893;SDS011;15240;50.812;4.792;2023-07-13T06:45:54;9.93;;;3.43;;
27893;SDS011;15240;50.812;4.792;2023-07-13T06:48:20;14.53;;;3.80;;
27893;SDS011;15240;50.812;4.792;2023-07-13T06:50:47;12.60;;;3.47;;
27893;SDS011;15240;50.812;4.792;2023-07-13T06:53:14;14.60;;;3.70;;
27893;SDS011;15240;50.812;4.792;2023-07-13T06:55:40;13.73;;;3.30;;
27893;SDS011;15240;50.812;4.792;2023-07-13T06:58:09;14.33;;;3.30;;
27893;SDS011;15240;50.812;4.792;2023-07-13T07:00:35;13.97;;;3.90;;
27893;SDS011;15240;50.812;4.792;2023-07-13T07:03:01;10.50;;;3.20;;
27893;SDS011;15240;50.812;4.792;2023-07-13T07:05:27;14.50;;;3.40;;
27893;SDS011;15240;50.812;4.792;2023-07-13T07:07:54;12.60;;;3.57;;
27893;SDS011;15240;50.812;4.792;2023-07-13T07:10:21;7.60;;;2.60;;
27893;SDS011;15240;50.812;4.792;2023-07-13T07:12:47;12.33;;;2.97;;
27893;SDS011;15240;50.812;4.792;2023-07-13T07:15:13;11.73;;;3.20;;
27893;SDS011;15240;50.812;4.792;2023-07-13T07:17:39;8.77;;;3.13;;
27893;SDS011;15240;50.812;4.792;2023-07-13T07:20:06;11.20;;;3.10;;
27893;SDS011;15240;50.812;4.792;2023-07-13T07:22:33;12.67;;;3.13;;
27893;SDS011;15240;50.812;4.792;2023-07-13T07:24:59;10.37;;;3.20;;
27893;SDS011;15240;50.812;4.792;2023-07-13T07:27:25;12.87;;;3.20;;
27893;SDS011;15240;50.812;4.792;2023-07-13T07:29:51;11.20;;;3.20;;
27893;SDS011;15240;50.812;4.792;2023-07-13T07:32:18;11.17;;;3.13;;
27893;SDS011;15240;50.812;4.792;2023-07-13T07:34:44;13.57;;;3.40;;
27893;SDS011;15240;50.812;4.792;2023-07-13T07:37:11;12.43;;;3.00;;
27893;SDS011;15240;50.812;4.792;2023-07-13T07:39:37;12.93;;;3.13;;
27893;SDS011;15240;50.812;4.792;2023-07-13T07:42:03;13.57;;;3.13;;
27893;SDS011;15240;50.812;4.792;2023-07-13T07:44:30;10.77;;;2.93;;
27893;SDS011;15240;50.812;4.792;2023-07-13T07:46:56;11.50;;;3.03;;
27893;SDS011;15240;50.812;4.792;2023-07-13T07:49:23;8.33;;;3.20;;
27893;SDS011;15240;50.812;4.792;2023-07-13T07:51:49;9.18;;;2.90;;
27893;SDS011;15240;50.812;4.792;2023-07-13T07:54:15;11.45;;;2.85;;
27893;SDS011;15240;50.812;4.792;2023-07-13T07:56:41;11.38;;;2.85;;
27893;SDS011;15240;50.812;4.792;2023-07-13T07:59:08;8.15;;;2.88;;
27893;SDS011;15240;50.812;4.792;2023-07-13T08:01:34;8.85;;;2.65;;
27893;SDS011;15240;50.812;4.792;2023-07-13T08:04:00;11.15;;;3.30;;
27893;SDS011;15240;50.812;4.792;2023-07-13T08:06:27;8.32;;;2.80;;
27893;SDS011;15240;50.812;4.792;2023-07-13T08:08:54;12.07;;;3.25;;
27893;SDS011;15240;50.812;4.792;2023-07-13T08:11:20;11.38;;;3.05;;
27893;SDS011;15240;50.812;4.792;2023-07-13T08:13:46;9.35;;;2.92;;
27893;SDS011;15240;50.812;4.792;2023-07-13T08:16:12;9.20;;;2.92;;
27893;SDS011;15240;50.812;4.792;2023-07-13T08:18:38;11.00;;;3.13;;
27893;SDS011;15240;50.812;4.792;2023-07-13T08:21:05;13.82;;;2.70;;
27893;SDS011;15240;50.812;4.792;2023-07-13T08:23:31;8.30;;;2.47;;
27893;SDS011;15240;50.812;4.792;2023-07-13T08:25:57;11.88;;;3.30;;
27893;SDS011;15240;50.812;4.792;2023-07-13T08:28:24;8.52;;;2.78;;
27893;SDS011;15240;50.812;4.792;2023-07-13T08:30:50;8.70;;;2.47;;
27893;SDS011;15240;50.812;4.792;2023-07-13T08:33:17;10.05;;;2.72;;
27893;SDS011;15240;50.812;4.792;2023-07-13T08:35:45;6.25;;;2.30;;
27893;SDS011;15240;50.812;4.792;2023-07-13T08:38:12;7.88;;;2.30;;
27893;SDS011;15240;50.812;4.792;2023-07-13T08:40:38;9.27;;;2.65;;
27893;SDS011;15240;50.812;4.792;2023-07-13T08:43:06;7.60;;;2.28;;
27893;SDS011;15240;50.812;4.792;2023-07-13T08:48:05;12.07;;;2.45;;
27893;SDS011;15240;50.812;4.792;2023-07-13T08:50:35;5.78;;;2.53;;
27893;SDS011;15240;50.812;4.792;2023-07-13T08:53:05;7.50;;;2.22;;
27893;SDS011;15240;50.812;4.792;2023-07-13T08:55:34;5.57;;;2.13;;
27893;SDS011;15240;50.812;4.792;2023-07-13T08:58:09;10.88;;;2.42;;
27893;SDS011;15240;50.812;4.792;2023-07-13T09:00:44;7.68;;;2.17;;
27893;SDS011;15240;50.812;4.792;2023-07-13T09:03:15;6.75;;;2.17;;
27893;SDS011;15240;50.812;4.792;2023-07-13T09:05:45;8.00;;;2.10;;
27893;SDS011;15240;50.812;4.792;2023-07-13T09:10:44;5.78;;;2.10;;
27893;SDS011;15240;50.812;4.792;2023-07-13T09:15:38;6.75;;;1.70;;
27893;SDS011;15240;50.812;4.792;2023-07-13T09:18:11;5.63;;;1.70;;
27893;SDS011;15240;50.812;4.792;2023-07-13T09:23:07;5.72;;;2.05;;
27893;SDS011;15240;50.812;4.792;2023-07-13T09:25:35;5.63;;;1.65;;
27893;SDS011;15240;50.812;4.792;2023-07-13T09:28:17;7.00;;;2.10;;
27893;SDS011;15240;50.812;4.792;2023-07-13T09:33:29;6.35;;;1.60;;
27893;SDS011;15240;50.812;4.792;2023-07-13T09:35:56;5.75;;;1.83;;
27893;SDS011;15240;50.812;4.792;2023-07-13T09:38:24;6.65;;;1.67;;
27893;SDS011;15240;50.812;4.792;2023-07-13T09:43:35;4.90;;;1.60;;
27893;SDS011;15240;50.812;4.792;2023-07-13T09:46:02;4.90;;;1.63;;
27893;SDS011;15240;50.812;4.792;2023-07-13T09:48:33;4.78;;;1.60;;
27893;SDS011;15240;50.812;4.792;2023-07-13T09:51:03;7.32;;;1.80;;
27893;SDS011;15240;50.812;4.792;2023-07-13T09:53:32;5.65;;;1.88;;
27893;SDS011;15240;50.812;4.792;2023-07-13T09:55:58;6.78;;;1.70;;
27893;SDS011;15240;50.812;4.792;2023-07-13T09:58:26;5.88;;;1.80;;
27893;SDS011;15240;50.812;4.792;2023-07-13T10:00:59;7.05;;;1.90;;
27893;SDS011;15240;50.812;4.792;2023-07-13T10:03:30;4.07;;;1.40;;
27893;SDS011;15240;50.812;4.792;2023-07-13T10:06:06;3.80;;;1.48;;
27893;SDS011;15240;50.812;4.792;2023-07-13T10:08:36;6.47;;;1.92;;
27893;SDS011;15240;50.812;4.792;2023-07-13T10:11:10;8.10;;;1.67;;
27893;SDS011;15240;50.812;4.792;2023-07-13T10:13:37;4.22;;;1.35;;
27893;SDS011;15240;50.812;4.792;2023-07-13T10:16:05;6.72;;;1.73;;
27893;SDS011;15240;50.812;4.792;2023-07-13T10:18:39;4.93;;;1.77;;
27893;SDS011;15240;50.812;4.792;2023-07-13T10:21:13;4.93;;;1.50;;
27893;SDS011;15240;50.812;4.792;2023-07-13T10:23:39;5.05;;;1.42;;
27893;SDS011;15240;50.812;4.792;2023-07-13T10:26:09;7.22;;;1.77;;
27893;SDS011;15240;50.812;4.792;2023-07-13T10:28:39;6.55;;;1.80;;
27893;SDS011;15240;50.812;4.792;2023-07-13T10:31:09;7.28;;;1.73;;
27893;SDS011;15240;50.812;4.792;2023-07-13T10:33:36;4.93;;;1.58;;
27893;SDS011;15240;50.812;4.792;2023-07-13T10:36:12;7.38;;;1.60;;
27893;SDS011;15240;50.812;4.792;2023-07-13T10:38:39;5.95;;;2.00;;
27893;SDS011;15240;50.812;4.792;2023-07-13T10:41:07;5.75;;;1.73;;
27893;SDS011;15240;50.812;4.792;2023-07-13T10:43:42;7.03;;;1.67;;
27893;SDS011;15240;50.812;4.792;2023-07-13T10:46:13;5.20;;;1.77;;
27893;SDS011;15240;50.812;4.792;2023-07-13T10:48:42;6.78;;;1.70;;
27893;SDS011;15240;50.812;4.792;2023-07-13T10:51:09;6.18;;;1.98;;
27893;SDS011;15240;50.812;4.792;2023-07-13T10:53:37;5.13;;;1.58;;
27893;SDS011;15240;50.812;4.792;2023-07-13T11:03:32;5.85;;;1.63;;
27893;SDS011;15240;50.812;4.792;2023-07-13T11:06:42;6.20;;;1.90;;
27893;SDS011;15240;50.812;4.792;2023-07-13T11:08:54;5.75;;;1.50;;
27893;SDS011;15240;50.812;4.792;2023-07-13T11:18:45;4.10;;;1.52;;
27893;SDS011;15240;50.812;4.792;2023-07-13T11:21:15;5.60;;;1.30;;
27893;SDS011;15240;50.812;4.792;2023-07-13T11:23:42;3.13;;;1.17;;
27893;SDS011;15240;50.812;4.792;2023-07-13T11:28:54;5.10;;;1.45;;
27893;SDS011;15240;50.812;4.792;2023-07-13T11:31:20;5.35;;;1.75;;
27893;SDS011;15240;50.812;4.792;2023-07-13T11:33:51;4.18;;;1.55;;
27893;SDS011;15240;50.812;4.792;2023-07-13T11:36:21;5.80;;;1.50;;
27893;SDS011;15240;50.812;4.792;2023-07-13T11:38:57;6.70;;;1.75;;
27893;SDS011;15240;50.812;4.792;2023-07-13T11:41:26;4.13;;;1.30;;
27893;SDS011;15240;50.812;4.792;2023-07-13T11:43:54;5.63;;;1.60;;
27893;SDS011;15240;50.812;4.792;2023-07-13T11:46:25;7.32;;;1.45;;
27893;SDS011;15240;50.812;4.792;2023-07-13T11:48:52;5.72;;;1.65;;
27893;SDS011;15240;50.812;4.792;2023-07-13T11:51:37;4.03;;;1.40;;
27893;SDS011;15240;50.812;4.792;2023-07-13T11:54:05;5.53;;;1.35;;
27893;SDS011;15240;50.812;4.792;2023-07-13T11:56:34;2.42;;;1.20;;
27893;SDS011;15240;50.812;4.792;2023-07-13T11:59:06;4.50;;;1.48;;
27893;SDS011;15240;50.812;4.792;2023-07-13T12:01:33;5.85;;;1.50;;
27893;SDS011;15240;50.812;4.792;2023-07-13T12:04:02;3.53;;;1.40;;
27893;SDS011;15240;50.812;4.792;2023-07-13T12:06:32;3.78;;;1.40;;
27893;SDS011;15240;50.812;4.792;2023-07-13T12:09:00;4.05;;;1.23;;
27893;SDS011;15240;50.812;4.792;2023-07-13T12:11:28;4.38;;;1.50;;
27893;SDS011;15240;50.812;4.792;2023-07-13T12:13:54;2.95;;;1.23;;
27893;SDS011;15240;50.812;4.792;2023-07-13T12:16:25;3.90;;;1.25;;
27893;SDS011;15240;50.812;4.792;2023-07-13T12:18:53;3.22;;;1.17;;
27893;SDS011;15240;50.812;4.792;2023-07-13T12:21:21;4.63;;;1.20;;
27893;SDS011;15240;50.812;4.792;2023-07-13T12:23:48;3.90;;;1.40;;
27893;SDS011;15240;50.812;4.792;2023-07-13T12:26:14;3.13;;;1.23;;
27893;SDS011;15240;50.812;4.792;2023-07-13T12:28:46;4.18;;;1.10;;
27893;SDS011;15240;50.812;4.792;2023-07-13T12:34:00;3.97;;;1.30;;
27893;SDS011;15240;50.812;4.792;2023-07-13T12:36:26;4.10;;;1.10;;
27893;SDS011;15240;50.812;4.792;2023-07-13T12:38:54;4.43;;;1.40;;
27893;SDS011;15240;50.812;4.792;2023-07-13T12:41:22;3.85;;;1.35;;
27893;SDS011;15240;50.812;4.792;2023-07-13T12:43:48;3.75;;;1.20;;
27893;SDS011;15240;50.812;4.792;2023-07-13T12:48:41;4.65;;;1.40;;
27893;SDS011;15240;50.812;4.792;2023-07-13T12:51:12;3.50;;;1.20;;
27893;SDS011;15240;50.812;4.792;2023-07-13T12:53:41;2.13;;;0.90;;
27893;SDS011;15240;50.812;4.792;2023-07-13T12:56:09;4.07;;;1.48;;
27893;SDS011;15240;50.812;4.792;2023-07-13T12:58:39;2.65;;;1.17;;
27893;SDS011;15240;50.812;4.792;2023-07-13T13:01:11;3.83;;;1.05;;
27893;SDS011;15240;50.812;4.792;2023-07-13T13:03:39;3.65;;;1.10;;
27893;SDS011;15240;50.812;4.792;2023-07-13T13:08:42;3.33;;;1.10;;
27893;SDS011;15240;50.812;4.792;2023-07-13T13:11:08;3.45;;;1.10;;
27893;SDS011;15240;50.812;4.792;2023-07-13T13:13:35;4.43;;;1.23;;
27893;SDS011;15240;50.812;4.792;2023-07-13T13:16:01;2.08;;;1.20;;
27893;SDS011;15240;50.812;4.792;2023-07-13T13:18:31;5.85;;;1.42;;
27893;SDS011;15240;50.812;4.792;2023-07-13T13:20:57;3.05;;;1.30;;
27893;SDS011;15240;50.812;4.792;2023-07-13T13:23:23;2.80;;;1.45;;
27893;SDS011;15240;50.812;4.792;2023-07-13T13:25:50;3.53;;;1.42;;
27893;SDS011;15240;50.812;4.792;2023-07-13T13:28:17;2.97;;;1.10;;
27893;SDS011;15240;50.812;4.792;2023-07-13T13:30:44;2.88;;;1.13;;
27893;SDS011;15240;50.812;4.792;2023-07-13T13:33:11;5.25;;;1.42;;
27893;SDS011;15240;50.812;4.792;2023-07-13T13:35:37;5.40;;;1.40;;
27893;SDS011;15240;50.812;4.792;2023-07-13T13:38:09;4.75;;;1.40;;
27893;SDS011;15240;50.812;4.792;2023-07-13T13:40:36;4.38;;;1.25;;
27893;SDS011;15240;50.812;4.792;2023-07-13T13:43:04;3.25;;;1.25;;
27893;SDS011;15240;50.812;4.792;2023-07-13T13:45:30;2.50;;;1.30;;
27893;SDS011;15240;50.812;4.792;2023-07-13T13:47:57;4.50;;;1.40;;
27893;SDS011;15240;50.812;4.792;2023-07-13T13:50:23;4.65;;;1.30;;
27893;SDS011;15240;50.812;4.792;2023-07-13T13:52:49;3.08;;;1.30;;
27893;SDS011;15240;50.812;4.792;2023-07-13T13:55:20;3.35;;;1.30;;
27893;SDS011;15240;50.812;4.792;2023-07-13T13:57:46;3.58;;;1.30;;
27893;SDS011;15240;50.812;4.792;2023-07-13T14:00:14;4.35;;;1.23;;
27893;SDS011;15240;50.812;4.792;2023-07-13T14:02:40;5.30;;;1.52;;
27893;SDS011;15240;50.812;4.792;2023-07-13T14:05:09;3.63;;;1.10;;
27893;SDS011;15240;50.812;4.792;2023-07-13T14:07:37;4.30;;;1.30;;
27893;SDS011;15240;50.812;4.792;2023-07-13T14:10:13;5.28;;;1.30;;
27893;SDS011;15240;50.812;4.792;2023-07-13T14:12:40;3.75;;;1.30;;
27893;SDS011;15240;50.812;4.792;2023-07-13T14:15:12;4.43;;;1.10;;
27893;SDS011;15240;50.812;4.792;2023-07-13T14:17:41;2.20;;;1.25;;
27893;SDS011;15240;50.812;4.792;2023-07-13T14:20:10;4.45;;;1.10;;
27893;SDS011;15240;50.812;4.792;2023-07-13T14:22:37;3.70;;;1.60;;
27893;SDS011;15240;50.812;4.792;2023-07-13T14:25:03;3.85;;;1.33;;
27893;SDS011;15240;50.812;4.792;2023-07-13T14:27:30;4.07;;;1.30;;
27893;SDS011;15240;50.812;4.792;2023-07-13T14:29:56;2.50;;;1.13;;
27893;SDS011;15240;50.812;4.792;2023-07-13T14:32:22;2.45;;;1.05;;
27893;SDS011;15240;50.812;4.792;2023-07-13T14:34:48;2.95;;;1.20;;
27893;SDS011;15240;50.812;4.792;2023-07-13T14:37:14;4.05;;;1.30;;
27893;SDS011;15240;50.812;4.792;2023-07-13T14:39:42;2.20;;;1.02;;
27893;SDS011;15240;50.812;4.792;2023-07-13T14:42:09;4.97;;;1.30;;
27893;SDS011;15240;50.812;4.792;2023-07-13T14:44:35;2.55;;;1.23;;
27893;SDS011;15240;50.812;4.792;2023-07-13T14:47:02;4.72;;;1.50;;
27893;SDS011;15240;50.812;4.792;2023-07-13T14:49:35;3.95;;;1.40;;
27893;SDS011;15240;50.812;4.792;2023-07-13T14:52:05;3.28;;;1.30;;
27893;SDS011;15240;50.812;4.792;2023-07-13T14:54:31;3.03;;;1.40;;
27893;SDS011;15240;50.812;4.792;2023-07-13T14:56:57;2.88;;;1.20;;
27893;SDS011;15240;50.812;4.792;2023-07-13T14:59:23;4.13;;;1.25;;
27893;SDS011;15240;50.812;4.792;2023-07-13T15:01:49;3.08;;;1.30;;
27893;SDS011;15240;50.812;4.792;2023-07-13T15:04:16;2.05;;;1.05;;
27893;SDS011;15240;50.812;4.792;2023-07-13T15:06:59;3.47;;;1.52;;
27893;SDS011;15240;50.812;4.792;2023-07-13T15:09:27;3.88;;;1.38;;
27893;SDS011;15240;50.812;4.792;2023-07-13T15:11:54;2.92;;;1.23;;
27893;SDS011;15240;50.812;4.792;2023-07-13T15:14:20;4.65;;;1.27;;
27893;SDS011;15240;50.812;4.792;2023-07-13T15:16:50;3.35;;;1.33;;
27893;SDS011;15240;50.812;4.792;2023-07-13T15:19:17;3.10;;;1.40;;
27893;SDS011;15240;50.812;4.792;2023-07-13T15:21:44;3.90;;;1.50;;
27893;SDS011;15240;50.812;4.792;2023-07-13T15:24:10;3.92;;;1.33;;
27893;SDS011;15240;50.812;4.792;2023-07-13T15:26:37;4.97;;;1.50;;